Alice Springs, Northern Territory

1:56 PM ACST on October 26, 2014 (GMT +0930)
Mount Johns, Alice Springs | Change Station
CLOSE
Current Station
Personal Weather Station
Location: Alice Springs, NORTHERN TERRITORY
Elevation: 1890 ft
Nearby Weather Stations

Elev 1890 ft 23.72 °S, 133.88 °E | Updated 8 seconds ago

Clear
Clear
104.9 °F
Feels Like 99 °F
N
2.0
Wind Variable Wind from NW
Gusts 7.2 mph

Today
High -- | Low -- °F
--% Chance of Precip.
Yesterday
High -- | Low -- °F
Precip. -- in
5:52 AM 6:44 PM
Waxing Crescent, 6% visible
Pressure 29.95 in
Visibility 6.2 miles
Clouds
Heat Index 99 °F
Dew Point 37 °F
Humidity 10%
Rainfall 0.00 in
Snow Depth Not available.
UV Not available.
Pollen Not available.
Air Quality Not available.
Flu Activity Not available.
METAR YBAS 260400Z 30007KT 230V360 9999 VCPO NSC 38/02 Q1014

More Conditions Fewer Conditions

Pressure 29.95 in
Visibility 6.2 miles
Clouds
Heat Index 99 °F
Dew Point 37 °F
Humidity 10%
Rainfall 0.00 in
Snow Depth Not available.
UV Not available.
Pollen Not available.
Air Quality Not available.
Flu Activity Not available.
METAR YBAS 260400Z 30007KT 230V360 9999 VCPO NSC 38/02 Q1014

More Conditions Fewer Conditions

10-Day Weather Forecast

Almanac

Astronomy

Oct. 26, 2014 Rise Set
Actual Time 5:52 AM ACST 6:44 PM ACST
Civil Twilight 5:29 AM ACST 7:07 PM ACST
Nautical Twilight 5:01 AM ACST 7:35 PM ACST
Astronomical Twilight 4:33 AM ACST 8:03 PM ACST
Moon 7:27 AM ACST 8:56 PM ACST
Length of Visible Light 13h 38m
Length of Day
12h 51m
Tomorrow will be 1m 16s longer.
Waxing Crescent, 6% of the Moon is Illuminated
Today
Waxing Crescent
Oct 30
First Quarter
Nov 6
Full
Nov 14
Last Quarter
Nov 22
New

Yesterday's Extremes

Country Highs Country Lows

Community

WunderPhotos

Upload Photos

1,765,110 photos uploaded!

Nearby

Snow Depth

Not available.

Earthquake Activity

City Distance Mag. Time & Date
No recent earthquake activity has been reported nearby.
Minimum magnitude displayed is 2.5.

Coastal Water Temperatures

Place Temperature
No Stations Reporting

Nearby Weather Stations